createdAt,value
2019-01-21T00:01:35.692Z,-2.60
2019-01-21T00:04:51.792Z,-2.30
2019-01-21T00:08:07.697Z,-2.60
2019-01-21T00:11:30.083Z,-2.50
2019-01-21T00:14:45.208Z,-2.70
2019-01-21T00:18:00.807Z,-2.80
2019-01-21T00:21:23.185Z,-2.60
2019-01-21T00:24:38.695Z,-2.50
2019-01-21T00:28:01.735Z,-2.70
2019-01-21T00:31:17.308Z,-2.80
2019-01-21T00:34:40.819Z,-2.70
2019-01-21T00:37:57.130Z,-2.70
2019-01-21T00:41:19.521Z,-2.70
2019-01-21T00:44:35.526Z,-2.70
2019-01-21T00:47:58.238Z,-2.50
2019-01-21T00:51:13.898Z,-2.60
2019-01-21T00:54:36.659Z,-2.50
2019-01-21T00:57:51.615Z,-2.30
2019-01-21T01:01:14.005Z,-2.40
2019-01-21T01:04:29.498Z,-2.60
2019-01-21T01:07:52.258Z,-2.30
2019-01-21T01:11:08.135Z,-2.60
2019-01-21T01:14:30.534Z,-2.50
2019-01-21T01:17:45.702Z,-2.30
2019-01-21T01:21:01.175Z,-2.20
2019-01-21T01:24:23.682Z,-2.20
2019-01-21T01:27:39.256Z,-2.30
2019-01-21T01:30:54.622Z,-2.50
2019-01-21T01:34:17.035Z,-2.70
2019-01-21T01:37:32.679Z,-2.50
2019-01-21T01:40:55.382Z,-2.60
2019-01-21T01:44:11.333Z,-2.50
2019-01-21T01:47:34.387Z,-2.40
2019-01-21T01:50:50.000Z,-2.40
2019-01-21T01:54:12.510Z,-2.40
2019-01-21T01:57:27.729Z,-2.30
2019-01-21T02:00:50.440Z,-2.40
2019-01-21T02:04:06.068Z,-2.70
2019-01-21T02:07:21.394Z,-2.90
2019-01-21T02:10:43.804Z,-2.90
2019-01-21T02:13:59.114Z,-2.90
2019-01-21T02:17:14.421Z,-2.80
2019-01-21T02:20:58.077Z,-2.60
2019-01-21T02:24:14.856Z,-2.50
2019-01-21T02:27:50.380Z,-2.20
2019-01-21T02:35:33.701Z,-2.40
2019-01-21T02:38:54.652Z,-2.40
2019-01-21T02:42:40.983Z,-2.50
2019-01-21T02:46:04.632Z,-2.60
2019-01-21T02:50:05.929Z,-2.80
2019-01-21T02:54:07.543Z,-2.90
2019-01-21T02:57:42.870Z,-2.80
2019-01-21T03:01:29.078Z,-2.90
2019-01-21T03:05:09.743Z,-2.90
2019-01-21T03:08:45.271Z,-2.70
2019-01-21T03:12:46.625Z,-2.80
2019-01-21T03:16:21.820Z,-2.90
2019-01-21T03:24:48.084Z,-2.90
2019-01-21T03:28:24.648Z,-2.90
2019-01-21T03:32:26.440Z,-2.80
2019-01-21T03:36:00.974Z,-2.60
2019-01-21T03:39:39.176Z,-2.50
2019-01-21T03:43:29.426Z,-2.70
2019-01-21T03:47:04.449Z,-2.80
2019-01-21T03:51:03.284Z,-2.80
2019-01-21T03:59:03.936Z,-2.60
2019-01-21T04:02:39.174Z,-2.70
2019-01-21T04:06:00.951Z,-2.80
2019-01-21T04:09:41.655Z,-2.60
2019-01-21T04:17:45.990Z,-2.70
2019-01-21T04:25:54.541Z,-2.60
2019-01-21T04:30:02.477Z,-2.60
2019-01-21T04:33:38.321Z,-2.50
2019-01-21T04:37:46.506Z,-2.80
2019-01-21T04:41:11.327Z,-3.00
2019-01-21T04:45:11.441Z,-2.70
2019-01-21T04:48:34.054Z,-2.60
2019-01-21T04:52:35.166Z,-2.90
2019-01-21T04:56:34.767Z,-2.80
2019-01-21T05:00:08.075Z,-2.70
2019-01-21T05:04:11.293Z,-2.80
2019-01-21T05:08:13.518Z,-2.80
2019-01-21T05:12:03.183Z,-2.80
2019-01-21T05:16:28.434Z,-2.80
2019-01-21T05:20:17.588Z,-2.70
2019-01-21T05:24:45.177Z,-2.60
2019-01-21T05:29:00.303Z,-2.70
2019-01-21T05:33:11.433Z,-2.90
2019-01-21T05:37:34.766Z,-2.90
2019-01-21T05:41:07.186Z,-3.10
2019-01-21T05:44:49.084Z,-2.90
2019-01-21T05:48:56.842Z,-2.90
2019-01-21T05:53:17.907Z,-3.00
2019-01-21T05:57:15.821Z,-2.80
2019-01-21T06:01:02.225Z,-2.70
2019-01-21T06:05:15.837Z,-2.70
2019-01-21T06:08:48.514Z,-2.70
2019-01-21T06:13:10.878Z,-2.70
2019-01-21T06:16:53.367Z,-2.70
2019-01-21T06:21:05.572Z,-2.70
2019-01-21T06:25:05.267Z,-2.80
2019-01-21T06:28:54.530Z,-2.70
2019-01-21T06:32:40.294Z,-2.80
2019-01-21T06:36:13.776Z,-2.80
2019-01-21T06:40:18.923Z,-2.80
2019-01-21T06:44:40.351Z,-2.70
2019-01-21T06:48:37.062Z,-2.80
2019-01-21T06:52:32.128Z,-3.10
2019-01-21T06:56:47.423Z,-3.10
2019-01-21T07:00:50.799Z,-3.00
2019-01-21T07:04:29.003Z,-2.90
2019-01-21T07:08:30.932Z,-2.80
2019-01-21T07:12:21.309Z,-2.80
2019-01-21T07:16:08.228Z,-2.90
2019-01-21T07:20:06.262Z,-2.80
2019-01-21T07:24:05.177Z,-2.80
2019-01-21T07:28:23.746Z,-2.90
2019-01-21T07:31:57.118Z,-1.00
2019-01-21T07:36:04.848Z,-1.70
2019-01-21T07:39:56.200Z,-2.30
2019-01-21T07:43:45.108Z,-2.60
2019-01-21T07:47:36.014Z,-2.70
2019-01-21T07:52:01.159Z,-2.80
2019-01-21T07:55:51.256Z,-2.80
2019-01-21T07:59:44.191Z,-2.90
2019-01-21T08:03:47.176Z,-2.80
2019-01-21T08:07:31.954Z,-2.90
2019-01-21T08:11:35.035Z,-2.80
2019-01-21T08:15:09.503Z,-2.70
2019-01-21T08:18:50.062Z,-2.70
2019-01-21T08:22:52.559Z,-2.70
2019-01-21T08:26:45.813Z,-2.70
2019-01-21T08:30:28.370Z,-2.70
2019-01-21T08:34:14.423Z,-2.70
2019-01-21T08:37:38.891Z,-2.70
2019-01-21T08:41:22.583Z,-2.60
2019-01-21T08:45:10.006Z,-2.60
2019-01-21T08:48:55.578Z,-2.60
2019-01-21T08:52:46.852Z,-2.50
2019-01-21T08:56:51.987Z,-2.50
2019-01-21T09:00:27.370Z,-2.50
2019-01-21T09:04:32.604Z,-2.50
2019-01-21T09:08:55.410Z,-2.50
2019-01-21T09:12:55.247Z,-2.50
2019-01-21T09:16:39.919Z,-0.30
2019-01-21T09:20:40.095Z,-1.30
2019-01-21T09:24:24.171Z,-1.80
2019-01-21T09:28:11.576Z,-2.00
2019-01-21T09:32:05.541Z,-2.10
2019-01-21T09:36:24.466Z,-2.10
2019-01-21T09:40:25.803Z,-2.00
2019-01-21T09:43:58.062Z,-1.90
2019-01-21T09:46:59.451Z,-1.90
2019-01-21T09:50:04.266Z,-1.90
2019-01-21T09:53:07.458Z,-1.90
2019-01-21T09:56:10.392Z,-1.80
2019-01-21T09:59:13.323Z,-1.80
2019-01-21T10:02:23.129Z,-1.80
2019-01-21T10:05:30.415Z,-1.80
2019-01-21T10:09:29.383Z,2.60
2019-01-21T10:13:50.788Z,3.00
2019-01-21T10:18:09.217Z,0.80
2019-01-21T10:22:19.054Z,-0.30
2019-01-21T10:26:21.604Z,-0.80
2019-01-21T10:30:07.904Z,-1.00
2019-01-21T10:34:13.893Z,-1.00
2019-01-21T10:38:42.291Z,-0.80
2019-01-21T10:42:17.390Z,-0.70
2019-01-21T10:46:08.106Z,-0.30
2019-01-21T10:50:00.030Z,-0.30
2019-01-21T10:53:54.505Z,-0.20
2019-01-21T10:57:50.846Z,-0.20
2019-01-21T11:01:26.147Z,-0.10
2019-01-21T11:05:15.313Z,-0.10
2019-01-21T11:09:17.723Z,1.20
2019-01-21T11:12:37.067Z,0.60
2019-01-21T11:16:38.500Z,0.30
2019-01-21T11:19:56.874Z,0.20
2019-01-21T11:23:58.594Z,0.20
2019-01-21T11:27:33.799Z,0.30
2019-01-21T11:31:35.208Z,0.30
2019-01-21T11:35:00.096Z,0.30
2019-01-21T11:38:33.288Z,0.50
2019-01-21T11:41:54.594Z,0.40
2019-01-21T11:50:10.491Z,0.50
2019-01-21T11:53:32.757Z,0.50
2019-01-21T11:57:34.352Z,0.70
2019-01-21T12:01:01.739Z,0.80
2019-01-21T12:04:22.466Z,0.80
2019-01-21T12:07:57.416Z,0.80
2019-01-21T12:11:44.304Z,0.90
2019-01-21T12:15:19.248Z,0.90
2019-01-21T12:19:16.341Z,0.90
2019-01-21T12:22:50.945Z,0.90
2019-01-21T12:26:52.526Z,1.00
2019-01-21T12:30:27.780Z,0.90
2019-01-21T12:34:29.082Z,1.10
2019-01-21T12:38:04.601Z,1.10
2019-01-21T12:41:42.945Z,1.20
2019-01-21T12:45:44.292Z,1.10
2019-01-21T12:49:21.832Z,1.60
2019-01-21T12:52:45.868Z,1.40
2019-01-21T12:56:21.323Z,1.30
2019-01-21T13:00:22.626Z,1.20
2019-01-21T13:03:57.033Z,1.30
2019-01-21T13:07:32.840Z,1.20
2019-01-21T13:11:20.510Z,1.10
2019-01-21T13:14:39.593Z,1.20
2019-01-21T13:18:05.951Z,1.30
2019-01-21T13:21:55.344Z,1.30
2019-01-21T13:25:33.601Z,1.20
2019-01-21T13:29:03.275Z,1.20
2019-01-21T13:32:34.430Z,1.20
2019-01-21T13:36:35.747Z,1.30
2019-01-21T13:40:11.347Z,1.20
2019-01-21T13:44:06.640Z,1.40
2019-01-21T13:47:28.912Z,1.30
2019-01-21T13:51:30.215Z,1.50
2019-01-21T13:55:06.338Z,1.50
2019-01-21T13:59:14.824Z,1.40
2019-01-21T14:02:33.791Z,1.40
2019-01-21T14:06:09.031Z,1.30
2019-01-21T14:10:05.897Z,1.30
2019-01-21T14:13:40.938Z,1.30
2019-01-21T14:17:15.724Z,1.20
2019-01-21T14:21:17.173Z,1.20
2019-01-21T14:24:52.346Z,1.30
2019-01-21T14:28:53.908Z,1.20
2019-01-21T14:32:34.640Z,1.20
2019-01-21T14:36:22.839Z,1.10
2019-01-21T14:39:39.984Z,1.10
2019-01-21T14:43:41.412Z,0.90
2019-01-21T14:47:01.291Z,0.80
2019-01-21T14:51:02.859Z,0.90
2019-01-21T14:54:37.827Z,0.70
2019-01-21T14:58:23.627Z,0.60
2019-01-21T15:01:58.930Z,0.40
2019-01-21T15:05:37.139Z,0.40
2019-01-21T15:13:47.043Z,0.30
2019-01-21T15:17:14.157Z,0.20
2019-01-21T15:20:32.131Z,0.20
2019-01-21T15:24:20.234Z,0.20
2019-01-21T15:28:21.562Z,0.10
2019-01-21T15:32:22.903Z,0.00
2019-01-21T15:36:09.710Z,0.00
2019-01-21T15:39:38.243Z,-0.10
2019-01-21T15:47:36.570Z,-0.20
2019-01-21T15:51:38.249Z,-0.20
2019-01-21T15:55:13.567Z,-0.20
2019-01-21T15:58:48.653Z,-0.30
2019-01-21T16:02:49.957Z,-0.30
2019-01-21T16:06:15.818Z,-0.40
2019-01-21T16:09:54.264Z,-0.50
2019-01-21T16:13:56.960Z,-0.50
2019-01-21T16:17:30.364Z,-0.50
2019-01-21T16:21:19.283Z,-0.60
2019-01-21T16:24:54.162Z,-0.60
2019-01-21T16:28:55.776Z,-0.50
2019-01-21T16:32:30.511Z,-0.70
2019-01-21T16:36:16.743Z,-0.70
2019-01-21T16:39:54.739Z,-0.70
2019-01-21T16:43:10.549Z,-0.60
2019-01-21T16:46:32.928Z,-0.70
2019-01-21T16:49:48.270Z,-0.60
2019-01-21T16:53:11.365Z,-0.70
2019-01-21T16:56:27.419Z,-0.60
2019-01-21T16:59:50.066Z,-0.70
2019-01-21T17:03:05.141Z,-0.60
2019-01-21T17:06:20.479Z,-0.60
2019-01-21T17:09:35.641Z,-0.60
2019-01-21T17:12:58.024Z,-0.70
2019-01-21T17:16:13.502Z,-0.70
2019-01-21T17:19:28.720Z,-0.60
2019-01-21T17:22:51.133Z,-0.70
2019-01-21T17:26:06.510Z,-0.80
2019-01-21T17:29:21.523Z,-0.90
2019-01-21T17:32:43.917Z,-0.80
2019-01-21T17:36:00.270Z,-0.80
2019-01-21T17:39:43.914Z,-0.90
2019-01-21T17:42:59.882Z,-1.00
2019-01-21T17:46:15.349Z,-1.10
2019-01-21T17:49:30.679Z,-1.00
2019-01-21T17:52:53.332Z,-1.00
2019-01-21T17:56:08.422Z,-1.00
2019-01-21T17:59:24.121Z,-1.00
2019-01-21T18:02:46.687Z,-1.00
2019-01-21T18:06:02.125Z,-1.00
2019-01-21T18:09:24.824Z,-1.10
2019-01-21T18:12:40.782Z,-0.90
2019-01-21T18:15:55.987Z,-1.00
2019-01-21T18:19:18.383Z,0.50
2019-01-21T18:22:33.623Z,-0.50
2019-01-21T18:25:56.448Z,-0.60
2019-01-21T18:29:11.876Z,-0.80
2019-01-21T18:32:34.573Z,-0.80
2019-01-21T18:35:52.998Z,-0.70
2019-01-21T18:39:15.768Z,-0.80
2019-01-21T18:42:31.307Z,-0.80
2019-01-21T18:45:53.723Z,-0.80
2019-01-21T18:49:09.811Z,-0.90
2019-01-21T18:52:32.469Z,-0.90
2019-01-21T18:55:48.163Z,-0.90
2019-01-21T18:59:10.650Z,-0.90
2019-01-21T19:02:26.647Z,-0.90
2019-01-21T19:05:42.152Z,-0.90
2019-01-21T19:09:07.481Z,-1.00
2019-01-21T19:12:23.669Z,-1.00
2019-01-21T19:15:46.138Z,-1.00
2019-01-21T19:19:02.161Z,-1.00
2019-01-21T19:22:24.961Z,-1.10
2019-01-21T19:25:41.236Z,-1.00
2019-01-21T19:28:44.977Z,-0.90
2019-01-21T19:32:07.344Z,-0.90
2019-01-21T19:35:24.512Z,-1.00
2019-01-21T19:38:47.012Z,-1.00
2019-01-21T19:42:03.035Z,-1.10
2019-01-21T19:45:18.261Z,-1.10
2019-01-21T19:48:41.162Z,-1.00
2019-01-21T19:52:00.235Z,-1.10
2019-01-21T19:55:26.511Z,-1.10
2019-01-21T19:58:42.433Z,-1.20
2019-01-21T20:01:46.040Z,-1.10
2019-01-21T20:05:01.526Z,-1.20
2019-01-21T20:08:23.997Z,-1.00
2019-01-21T20:11:40.021Z,-1.10
2019-01-21T20:19:05.407Z,-1.10
2019-01-21T20:22:21.449Z,-1.00
2019-01-21T20:25:44.380Z,-1.00
2019-01-21T20:29:00.207Z,-1.10
2019-01-21T20:32:22.731Z,-1.10
2019-01-21T20:35:38.496Z,-1.20
2019-01-21T20:39:00.979Z,-1.10
2019-01-21T20:42:16.769Z,-1.00
2019-01-21T20:45:39.285Z,-1.00
2019-01-21T20:48:54.314Z,-1.00
2019-01-21T20:52:17.465Z,-1.00
2019-01-21T20:55:33.226Z,-1.00
2019-01-21T20:58:55.741Z,-1.20
2019-01-21T21:02:11.097Z,-1.20
2019-01-21T21:05:26.746Z,-0.40
2019-01-21T21:08:49.269Z,-0.20
2019-01-21T21:12:04.697Z,-0.70
2019-01-21T21:15:21.065Z,-0.90
2019-01-21T21:18:43.544Z,-1.00
2019-01-21T21:21:58.652Z,-1.20
2019-01-21T21:25:21.527Z,-1.30
2019-01-21T21:28:37.240Z,-1.40
2019-01-21T21:31:59.642Z,-1.40
2019-01-21T21:35:14.800Z,-1.30
2019-01-21T21:38:37.248Z,-1.40
2019-01-21T21:41:52.412Z,-1.50
2019-01-21T21:45:15.927Z,-1.50
2019-01-21T21:48:32.879Z,-1.40
2019-01-21T21:51:55.391Z,-1.30
2019-01-21T21:55:10.742Z,-1.40
2019-01-21T21:58:34.120Z,-1.40
2019-01-21T22:01:49.534Z,-1.40
2019-01-21T22:05:06.678Z,-1.50
2019-01-21T22:08:22.962Z,-1.50
2019-01-21T22:11:45.449Z,-1.50
2019-01-21T22:14:48.325Z,-1.50
2019-01-21T22:18:04.296Z,-1.50
2019-01-21T22:21:26.655Z,-1.50
2019-01-21T22:24:42.317Z,-1.50
2019-01-21T22:28:04.984Z,-1.50
2019-01-21T22:31:20.702Z,-1.40
2019-01-21T22:34:43.366Z,-1.50
2019-01-21T22:37:58.985Z,-1.30
2019-01-21T22:41:21.711Z,-1.30
2019-01-21T22:44:24.635Z,-1.30
2019-01-21T22:47:27.838Z,-1.20
2019-01-21T22:50:31.411Z,-1.20
2019-01-21T22:53:35.163Z,-1.20
2019-01-21T22:56:38.438Z,-1.20
2019-01-21T22:59:41.358Z,-1.20
2019-01-21T23:02:44.274Z,-1.30
2019-01-21T23:05:47.302Z,-1.30
2019-01-21T23:08:50.331Z,-1.30
2019-01-21T23:11:53.662Z,-1.30
2019-01-21T23:14:56.999Z,-1.40
2019-01-21T23:18:04.360Z,-1.30
2019-01-21T23:21:05.659Z,-1.50
2019-01-21T23:24:09.318Z,-1.60
2019-01-21T23:27:12.340Z,-1.60
2019-01-21T23:30:15.832Z,-1.70
2019-01-21T23:33:19.419Z,-1.70
2019-01-21T23:36:22.708Z,-1.60
2019-01-21T23:39:26.019Z,-1.60
2019-01-21T23:42:29.310Z,-1.60
2019-01-21T23:45:32.611Z,-1.60
2019-01-21T23:48:36.300Z,-1.60
2019-01-21T23:51:39.224Z,-1.60
2019-01-21T23:54:42.120Z,-1.70
2019-01-21T23:57:45.371Z,-1.50
